Time;durP1;ratioP1;P1;durP2;ratioP2;P2;SDS_P1;SDS_P2;PMS_P1;PMS_P2;Temp;Humidity;BMP_temperature;BMP_pressure;BME280_temperature;BME280_humidity;BME280_pressure;Samples;Min_cycle;Max_cycle;Signal;HPM_P1;HPM_P2
2022/01/01 00:02:15;;;;;;;;;;;14.10;64.30;;;;;;5093802;28;20258;-65
2022/01/01 00:04:42;;;;;;;;;;;14.10;64.30;;;;;;5091863;28;19908;-65
2022/01/01 00:07:08;;;;;;;;;;;14.10;64.10;;;;;;5094043;28;19916;-65
2022/01/01 00:09:34;;;;;;;;;;;14.10;63.90;;;;;;5093805;28;19915;-65
2022/01/01 00:11:59;;;;;;;;;;;14.10;63.90;;;;;;5093765;28;19908;-65
2022/01/01 00:14:25;;;;;;;;;;;14.10;63.90;;;;;;5093794;28;19962;-65
2022/01/01 00:16:50;;;;;;;;;;;14.10;63.80;;;;;;5093432;28;20300;-65
2022/01/01 00:19:16;;;;;;;;;;;14.10;63.60;;;;;;5111683;28;19911;-65
2022/01/01 00:21:43;;;;;;;;;;;14.10;63.50;;;;;;5107398;28;19955;-65
2022/01/01 00:24:09;;;;;;;;;;;14.10;63.30;;;;;;5093494;28;19995;-65
2022/01/01 00:26:35;;;;;;;;;;;14.10;63.30;;;;;;5093673;28;20285;-66
2022/01/01 00:29:00;;;;;;;;;;;14.10;63.20;;;;;;5093597;28;19954;-65
2022/01/01 00:31:26;;;;;;;;;;;14.10;63.20;;;;;;5093312;28;19909;-65
2022/01/01 00:33:52;;;;;;;;;;;14.10;63.10;;;;;;5092171;28;19955;-65
2022/01/01 00:36:17;;;;;;;;;;;14.10;63.10;;;;;;5093510;28;19916;-65
2022/01/01 00:38:43;;;;;;;;;;;14.10;63.10;;;;;;5093327;28;20274;-65
2022/01/01 00:41:08;;;;;;;;;;;14.10;63.10;;;;;;5093384;28;19934;-65
2022/01/01 00:43:34;;;;;;;;;;;14.10;63.30;;;;;;5093329;28;20293;-65
2022/01/01 00:46:00;;;;;;;;;;;14.10;63.10;;;;;;5093370;28;20053;-66
2022/01/01 00:48:25;;;;;;;;;;;14.10;63.00;;;;;;5093378;28;19909;-65
2022/01/01 00:50:51;;;;;;;;;;;14.20;63.00;;;;;;5093357;28;20392;-65
2022/01/01 00:53:16;;;;;;;;;;;14.20;62.90;;;;;;5091918;28;19908;-65
2022/01/01 00:55:42;;;;;;;;;;;14.20;62.90;;;;;;5093178;28;19912;-65
2022/01/01 00:58:08;;;;;;;;;;;14.20;62.80;;;;;;5093141;28;19916;-65
2022/01/01 01:00:33;;;;;;;;;;;14.30;62.80;;;;;;5093231;28;20357;-65
2022/01/01 01:02:59;;;;;;;;;;;14.30;62.60;;;;;;5099585;28;20421;-65
2022/01/01 01:05:24;;;;;;;;;;;14.30;62.60;;;;;;5091985;28;19957;-65
2022/01/01 01:07:50;;;;;;;;;;;14.40;62.70;;;;;;5093085;28;19908;-65
2022/01/01 01:10:16;;;;;;;;;;;14.40;62.60;;;;;;5093046;28;20007;-65
2022/01/01 01:12:45;;;;;;;;;;;14.50;62.60;;;;;;5092917;28;19996;-65
2022/01/01 01:15:16;;;;;;;;;;;14.50;62.50;;;;;;5093698;28;19912;-65
2022/01/01 01:17:43;;;;;;;;;;;14.60;62.30;;;;;;5113532;28;20320;-65
2022/01/01 01:20:09;;;;;;;;;;;14.60;62.30;;;;;;5117414;28;19915;-66
2022/01/01 01:22:35;;;;;;;;;;;14.60;62.20;;;;;;5115596;28;20280;-65
2022/01/01 01:25:01;;;;;;;;;;;14.60;62.20;;;;;;5096720;28;19947;-65
2022/01/01 01:27:28;;;;;;;;;;;14.60;62.00;;;;;;5096755;28;19922;-65
2022/01/01 01:29:54;;;;;;;;;;;14.70;62.00;;;;;;5096822;28;20420;-65
2022/01/01 01:32:20;;;;;;;;;;;14.70;62.00;;;;;;5096728;28;19958;-65
2022/01/01 01:34:45;;;;;;;;;;;14.70;61.70;;;;;;5096574;28;19916;-65
2022/01/01 01:37:11;;;;;;;;;;;14.70;61.70;;;;;;5096682;28;19923;-65
2022/01/01 01:39:37;;;;;;;;;;;14.70;61.70;;;;;;5096531;28;19916;-65
2022/01/01 01:42:02;;;;;;;;;;;14.80;61.60;;;;;;5096602;28;19999;-65
2022/01/01 01:44:30;;;;;;;;;;;14.80;61.60;;;;;;5096481;28;19912;-66
2022/01/01 01:46:56;;;;;;;;;;;14.80;61.50;;;;;;5096523;28;19914;-65
2022/01/01 01:49:22;;;;;;;;;;;14.80;61.40;;;;;;5096528;28;19915;-66
2022/01/01 01:51:48;;;;;;;;;;;14.70;61.30;;;;;;5096273;28;19908;-65
2022/01/01 01:54:14;;;;;;;;;;;14.80;61.30;;;;;;5096209;28;20289;-66
2022/01/01 01:56:39;;;;;;;;;;;14.80;61.30;;;;;;5096197;28;19908;-65
2022/01/01 01:59:05;;;;;;;;;;;14.80;61.20;;;;;;5096259;28;20007;-65
2022/01/01 02:01:31;;;;;;;;;;;14.80;61.10;;;;;;5096266;28;20032;-66
2022/01/01 02:03:57;;;;;;;;;;;14.80;61.10;;;;;;5095972;28;20007;-65
2022/01/01 02:06:23;;;;;;;;;;;14.80;61.10;;;;;;5096090;28;19987;-65
2022/01/01 02:08:50;;;;;;;;;;;14.80;60.90;;;;;;5100817;28;19951;-65
2022/01/01 02:11:20;;;;;;;;;;;14.80;60.80;;;;;;5116225;27;19908;-66
2022/01/01 02:14:01;;;;;;;;;;;14.80;60.80;;;;;;5107765;27;19912;-65
2022/01/01 02:16:35;;;;;;;;;;;14.80;60.90;;;;;;5113692;28;19944;-65
2022/01/01 02:19:00;;;;;;;;;;;14.80;60.80;;;;;;5116039;28;19911;-66
2022/01/01 02:21:26;;;;;;;;;;;14.80;60.80;;;;;;5116119;28;19958;-66
2022/01/01 02:23:57;;;;;;;;;;;14.80;60.80;;;;;;5107635;27;19915;-66
2022/01/01 02:26:27;;;;;;;;;;;14.90;60.80;;;;;;5095322;28;19908;-66
2022/01/01 02:28:53;;;;;;;;;;;14.90;60.60;;;;;;5095039;28;20392;-65
2022/01/01 02:31:18;;;;;;;;;;;14.90;60.50;;;;;;5095642;28;19909;-66
2022/01/01 02:33:44;;;;;;;;;;;14.90;60.50;;;;;;5095351;28;19915;-65
2022/01/01 02:36:10;;;;;;;;;;;14.90;60.50;;;;;;5095503;28;19919;-65
2022/01/01 02:38:36;;;;;;;;;;;14.90;60.40;;;;;;5095259;28;19999;-66
2022/01/01 02:41:02;;;;;;;;;;;14.90;60.30;;;;;;5095265;28;20344;-65
2022/01/01 02:43:27;;;;;;;;;;;14.90;60.20;;;;;;5095090;28;19923;-65
2022/01/01 02:45:53;;;;;;;;;;;15.00;60.20;;;;;;5095170;28;19919;-65
2022/01/01 02:48:19;;;;;;;;;;;15.00;60.00;;;;;;5095256;28;19916;-66
2022/01/01 02:50:44;;;;;;;;;;;15.00;59.90;;;;;;5095157;28;19916;-65
2022/01/01 02:53:11;;;;;;;;;;;15.00;59.80;;;;;;5093738;28;19908;-66
2022/01/01 02:55:36;;;;;;;;;;;15.00;59.80;;;;;;5095078;28;20281;-65
2022/01/01 02:58:02;;;;;;;;;;;15.00;59.70;;;;;;5093523;28;19912;-66
2022/01/01 03:00:27;;;;;;;;;;;15.00;59.60;;;;;;5094975;28;20375;-66
2022/01/01 03:02:53;;;;;;;;;;;15.00;59.60;;;;;;5094862;28;19943;-66
2022/01/01 03:05:18;;;;;;;;;;;15.00;59.50;;;;;;5094713;28;19915;-65
2022/01/01 03:07:44;;;;;;;;;;;15.00;59.50;;;;;;5094779;28;20380;-66
2022/01/01 03:10:10;;;;;;;;;;;15.00;59.50;;;;;;5094748;28;19908;-66
2022/01/01 03:12:35;;;;;;;;;;;15.10;59.50;;;;;;5094800;28;19915;-65
2022/01/01 03:15:01;;;;;;;;;;;15.10;59.40;;;;;;5097645;28;19912;-65
2022/01/01 03:17:26;;;;;;;;;;;15.10;59.50;;;;;;5094453;28;19920;-66
2022/01/01 03:19:52;;;;;;;;;;;15.10;59.50;;;;;;5094686;28;20350;-65
2022/01/01 03:22:18;;;;;;;;;;;15.10;59.40;;;;;;5094568;28;19958;-66
2022/01/01 03:24:43;;;;;;;;;;;15.10;59.20;;;;;;5094286;28;19912;-66
2022/01/01 03:27:09;;;;;;;;;;;15.10;59.30;;;;;;5094452;28;20325;-65
2022/01/01 03:29:34;;;;;;;;;;;15.10;59.30;;;;;;5094457;28;19908;-66
2022/01/01 03:32:00;;;;;;;;;;;15.10;59.30;;;;;;5094393;28;19914;-66
2022/01/01 03:34:26;;;;;;;;;;;15.10;59.20;;;;;;5093100;28;20018;-65
2022/01/01 03:36:51;;;;;;;;;;;15.10;59.00;;;;;;5099822;28;19916;-65
2022/01/01 03:39:17;;;;;;;;;;;15.10;58.90;;;;;;5114625;28;19994;-65
2022/01/01 03:41:42;;;;;;;;;;;15.00;58.90;;;;;;5114680;28;19943;-65
2022/01/01 03:44:08;;;;;;;;;;;15.00;59.00;;;;;;5114574;28;19908;-65
2022/01/01 03:46:34;;;;;;;;;;;15.00;59.00;;;;;;5114595;28;19908;-65
2022/01/01 03:48:59;;;;;;;;;;;15.00;59.10;;;;;;5112708;28;20378;-66
2022/01/01 03:51:25;;;;;;;;;;;15.00;59.20;;;;;;5114501;28;19908;-66
2022/01/01 03:53:50;;;;;;;;;;;15.00;59.30;;;;;;5114399;28;19908;-65
2022/01/01 03:56:16;;;;;;;;;;;15.00;59.40;;;;;;5114030;28;19915;-66
2022/01/01 03:58:42;;;;;;;;;;;15.00;59.50;;;;;;5114253;28;20120;-65
2022/01/01 04:01:07;;;;;;;;;;;15.00;59.50;;;;;;5111963;28;19915;-65
2022/01/01 04:03:33;;;;;;;;;;;14.90;59.40;;;;;;5093815;28;19999;-66
2022/01/01 04:05:58;;;;;;;;;;;15.00;59.70;;;;;;5093899;28;19908;-65
2022/01/01 04:08:24;;;;;;;;;;;15.00;59.70;;;;;;5093821;28;19908;-66
2022/01/01 04:10:49;;;;;;;;;;;15.00;59.70;;;;;;5093784;28;19958;-65
2022/01/01 04:13:15;;;;;;;;;;;14.90;59.70;;;;;;5108615;28;19908;-65
2022/01/01 04:15:41;;;;;;;;;;;15.00;59.80;;;;;;5095937;28;19969;-66
2022/01/01 04:18:11;;;;;;;;;;;14.90;59.90;;;;;;5093588;28;19951;-65
2022/01/01 04:20:39;;;;;;;;;;;14.90;59.90;;;;;;5093237;28;20217;-66
2022/01/01 04:23:09;;;;;;;;;;;14.90;59.90;;;;;;5093596;28;19908;-65
2022/01/01 04:25:34;;;;;;;;;;;15.00;59.90;;;;;;5093473;28;19909;-65
2022/01/01 04:28:00;;;;;;;;;;;14.90;60.00;;;;;;5093393;28;19918;-66
2022/01/01 04:30:28;;;;;;;;;;;14.90;60.00;;;;;;5093574;28;19915;-66
2022/01/01 04:32:57;;;;;;;;;;;14.90;60.00;;;;;;5093531;28;19914;-65
2022/01/01 04:35:23;;;;;;;;;;;14.90;60.00;;;;;;5093514;28;19915;-66
2022/01/01 04:37:49;;;;;;;;;;;14.90;60.10;;;;;;5093354;28;19912;-65
2022/01/01 04:40:15;;;;;;;;;;;14.90;60.30;;;;;;5108406;28;19911;-66
2022/01/01 04:42:41;;;;;;;;;;;14.90;60.30;;;;;;5113797;28;19953;-66
2022/01/01 04:45:06;;;;;;;;;;;15.00;60.40;;;;;;5113721;28;19958;-66
2022/01/01 04:47:32;;;;;;;;;;;15.00;60.40;;;;;;5113549;28;19980;-66
2022/01/01 04:49:58;;;;;;;;;;;15.00;60.30;;;;;;5113973;28;19908;-65
2022/01/01 04:52:23;;;;;;;;;;;15.00;60.30;;;;;;5105164;28;19913;-65
2022/01/01 04:54:49;;;;;;;;;;;15.00;60.30;;;;;;5099043;28;19939;-66
2022/01/01 04:57:15;;;;;;;;;;;15.10;60.40;;;;;;5097954;28;20011;-65
2022/01/01 04:59:41;;;;;;;;;;;15.10;60.30;;;;;;5108659;28;19915;-65
2022/01/01 05:02:06;;;;;;;;;;;15.10;60.30;;;;;;5097211;28;19915;-66
2022/01/01 05:04:32;;;;;;;;;;;15.10;60.30;;;;;;5110057;28;19907;-66
2022/01/01 05:06:58;;;;;;;;;;;15.10;60.30;;;;;;5099716;28;19912;-65
2022/01/01 05:09:24;;;;;;;;;;;15.20;60.30;;;;;;5117715;28;19915;-65
2022/01/01 05:11:49;;;;;;;;;;;15.20;60.30;;;;;;5117551;28;20433;-66
2022/01/01 05:14:16;;;;;;;;;;;15.20;60.30;;;;;;5102391;28;19912;-65
2022/01/01 05:16:41;;;;;;;;;;;15.20;60.20;;;;;;5097010;28;19924;-65
2022/01/01 05:19:07;;;;;;;;;;;15.30;60.30;;;;;;5097034;28;20377;-66
2022/01/01 05:21:35;;;;;;;;;;;15.30;60.20;;;;;;5097058;28;19908;-65
2022/01/01 05:24:02;;;;;;;;;;;15.30;60.20;;;;;;5096644;28;20280;-66
2022/01/01 05:26:27;;;;;;;;;;;15.30;60.20;;;;;;5096987;28;20296;-65
2022/01/01 05:28:53;;;;;;;;;;;15.30;60.00;;;;;;5096930;28;19908;-65
2022/01/01 05:31:19;;;;;;;;;;;15.30;60.00;;;;;;5095595;28;19915;-66
2022/01/01 05:33:49;;;;;;;;;;;15.30;60.00;;;;;;5096671;28;19908;-65
2022/01/01 05:36:15;;;;;;;;;;;15.30;60.00;;;;;;5096771;28;19912;-66
2022/01/01 05:38:41;;;;;;;;;;;15.20;60.00;;;;;;5095341;28;20289;-65
2022/01/01 05:41:06;;;;;;;;;;;15.20;59.90;;;;;;5096673;28;19912;-65
2022/01/01 05:43:32;;;;;;;;;;;15.20;60.00;;;;;;5096575;28;19931;-65
2022/01/01 05:45:57;;;;;;;;;;;15.20;60.00;;;;;;5096998;28;19962;-65
2022/01/01 05:48:23;;;;;;;;;;;15.20;60.00;;;;;;5101988;28;20385;-65
2022/01/01 05:50:49;;;;;;;;;;;15.20;60.00;;;;;;5116933;28;19978;-65
2022/01/01 05:53:15;;;;;;;;;;;15.10;60.00;;;;;;5102053;28;19908;-65
2022/01/01 05:55:40;;;;;;;;;;;15.10;60.10;;;;;;5096449;28;19977;-65
2022/01/01 05:58:06;;;;;;;;;;;15.10;60.90;;;;;;5096289;28;20357;-65
2022/01/01 06:00:32;;;;;;;;;;;15.10;60.10;;;;;;5096354;28;19912;-65
2022/01/01 06:02:58;;;;;;;;;;;15.10;60.20;;;;;;5094981;28;20372;-64
2022/01/01 06:05:24;;;;;;;;;;;15.10;60.20;;;;;;5096180;28;19951;-65
2022/01/01 06:07:50;;;;;;;;;;;15.10;60.10;;;;;;5096215;28;20422;-65
2022/01/01 06:10:16;;;;;;;;;;;15.10;60.10;;;;;;5096865;28;19912;-65
2022/01/01 06:12:41;;;;;;;;;;;15.10;60.10;;;;;;5116429;28;19939;-64
2022/01/01 06:15:07;;;;;;;;;;;15.20;60.20;;;;;;5116320;28;19919;-64
2022/01/01 06:17:32;;;;;;;;;;;15.20;60.20;;;;;;5116115;28;19919;-64
2022/01/01 06:19:58;;;;;;;;;;;15.20;60.20;;;;;;5114983;28;19914;-64
2022/01/01 06:22:24;;;;;;;;;;;15.20;60.20;;;;;;5096979;28;19935;-64
2022/01/01 06:24:49;;;;;;;;;;;15.20;60.20;;;;;;5095749;28;19908;-65
2022/01/01 06:27:15;;;;;;;;;;;15.20;60.30;;;;;;5095756;28;19914;-64
2022/01/01 06:29:41;;;;;;;;;;;15.20;60.20;;;;;;5095772;28;19912;-64
2022/01/01 06:32:07;;;;;;;;;;;15.30;60.10;;;;;;5095523;28;20296;-64
2022/01/01 06:34:32;;;;;;;;;;;15.30;60.10;;;;;;5095576;28;19992;-65
2022/01/01 06:37:01;;;;;;;;;;;15.30;60.10;;;;;;5095494;28;20002;-64
2022/01/01 06:39:26;;;;;;;;;;;15.30;60.10;;;;;;5095549;28;19943;-65
2022/01/01 06:41:52;;;;;;;;;;;15.30;60.00;;;;;;5095542;28;19923;-65
2022/01/01 06:44:17;;;;;;;;;;;15.30;59.90;;;;;;5095328;28;19934;-65
2022/01/01 06:46:43;;;;;;;;;;;15.40;60.00;;;;;;5095381;28;20336;-64
2022/01/01 06:49:08;;;;;;;;;;;15.30;59.80;;;;;;5095385;28;19915;-65
2022/01/01 06:51:36;;;;;;;;;;;15.30;59.80;;;;;;5095140;28;19912;-65
2022/01/01 06:54:02;;;;;;;;;;;15.30;59.80;;;;;;5095278;28;19919;-64
2022/01/01 06:56:28;;;;;;;;;;;15.30;59.90;;;;;;5095219;28;19908;-64
2022/01/01 06:58:53;;;;;;;;;;;15.30;59.90;;;;;;5095084;28;20392;-64
2022/01/01 07:01:19;;;;;;;;;;;15.30;59.90;;;;;;5095036;28;19918;-65
2022/01/01 07:03:44;;;;;;;;;;;15.30;59.80;;;;;;5095088;28;19908;-65
2022/01/01 07:06:10;;;;;;;;;;;15.30;59.80;;;;;;5095027;28;20427;-67
2022/01/01 07:08:36;;;;;;;;;;;15.20;59.80;;;;;;5105911;28;20002;-65
2022/01/01 07:11:01;;;;;;;;;;;15.20;59.80;;;;;;5099303;28;19916;-66
2022/01/01 07:13:27;;;;;;;;;;;15.30;59.90;;;;;;5094781;28;19915;-69
2022/01/01 07:15:52;;;;;;;;;;;15.20;59.90;;;;;;5094807;28;19915;-65
2022/01/01 07:18:18;;;;;;;;;;;15.20;60.00;;;;;;5095175;28;19981;-65
2022/01/01 07:20:43;;;;;;;;;;;15.30;60.00;;;;;;5093309;28;19912;-65
2022/01/01 07:23:10;;;;;;;;;;;15.30;60.00;;;;;;5094733;28;19908;-65
2022/01/01 07:25:36;;;;;;;;;;;15.30;60.10;;;;;;5094649;28;20007;-65
2022/01/01 07:28:02;;;;;;;;;;;15.30;60.00;;;;;;5094704;28;19956;-65
2022/01/01 07:30:28;;;;;;;;;;;15.30;60.00;;;;;;5094433;28;19919;-65
2022/01/01 07:32:54;;;;;;;;;;;15.40;60.10;;;;;;5094557;28;19908;-65
2022/01/01 07:35:20;;;;;;;;;;;15.30;60.00;;;;;;5094548;28;19946;-65
2022/01/01 07:37:46;;;;;;;;;;;15.40;60.10;;;;;;5094369;28;19912;-65
2022/01/01 07:40:13;;;;;;;;;;;15.40;60.10;;;;;;5094230;28;19923;-65
2022/01/01 07:42:39;;;;;;;;;;;15.40;60.00;;;;;;5094349;28;19999;-65
2022/01/01 07:45:05;;;;;;;;;;;15.40;60.00;;;;;;5094309;28;20310;-65
2022/01/01 07:47:31;;;;;;;;;;;15.50;60.00;;;;;;5094216;28;19943;-65
2022/01/01 07:49:57;;;;;;;;;;;15.50;60.00;;;;;;5094087;28;19962;-65
2022/01/01 07:52:23;;;;;;;;;;;15.50;60.00;;;;;;5092851;28;19969;-65
2022/01/01 07:54:48;;;;;;;;;;;15.50;59.90;;;;;;5094112;28;19908;-66
2022/01/01 07:57:14;;;;;;;;;;;15.50;59.80;;;;;;5094019;28;20373;-65
2022/01/01 07:59:39;;;;;;;;;;;15.50;59.70;;;;;;5093952;28;19947;-65
2022/01/01 08:02:05;;;;;;;;;;;15.50;59.70;;;;;;5094008;28;19999;-65
2022/01/01 08:04:31;;;;;;;;;;;15.50;59.70;;;;;;5092676;28;19919;-65
2022/01/01 08:06:56;;;;;;;;;;;15.50;59.70;;;;;;5094162;28;19912;-65
2022/01/01 08:09:22;;;;;;;;;;;15.50;59.70;;;;;;5093857;28;19915;-65
2022/01/01 08:11:49;;;;;;;;;;;15.50;59.80;;;;;;5093872;28;19908;-66
2022/01/01 08:14:16;;;;;;;;;;;15.50;59.90;;;;;;5093869;28;20395;-65
2022/01/01 08:16:54;;;;;;;;;;;15.50;59.80;;;;;;5093536;28;19978;-66
2022/01/01 08:19:20;;;;;;;;;;;15.50;59.80;;;;;;5093891;28;19919;-66
2022/01/01 08:21:45;;;;;;;;;;;15.60;59.80;;;;;;5093799;28;19908;-66
2022/01/01 08:24:11;;;;;;;;;;;15.60;59.70;;;;;;5093571;28;19919;-67
2022/01/01 08:26:36;;;;;;;;;;;15.70;59.80;;;;;;5093003;28;19998;-66
2022/01/01 08:29:02;;;;;;;;;;;15.70;59.70;;;;;;5093773;28;19908;-66
2022/01/01 08:31:27;;;;;;;;;;;15.80;59.70;;;;;;5093625;28;19909;-65
2022/01/01 08:33:53;;;;;;;;;;;15.80;59.80;;;;;;5093647;28;19963;-65
2022/01/01 08:36:19;;;;;;;;;;;15.80;59.70;;;;;;5093373;28;19912;-64
2022/01/01 08:38:44;;;;;;;;;;;15.90;59.70;;;;;;5093379;28;20000;-65
2022/01/01 08:41:10;;;;;;;;;;;15.90;59.70;;;;;;5093451;28;19931;-65
2022/01/01 08:43:36;;;;;;;;;;;16.00;59.60;;;;;;5093431;28;19947;-65
2022/01/01 08:46:01;;;;;;;;;;;16.00;59.50;;;;;;5093242;28;19969;-65
2022/01/01 08:48:27;;;;;;;;;;;16.10;59.50;;;;;;5093348;28;19908;-65
2022/01/01 08:50:53;;;;;;;;;;;16.10;59.50;;;;;;5093424;28;19943;-65
2022/01/01 08:53:18;;;;;;;;;;;16.20;59.40;;;;;;5093349;28;19930;-65
2022/01/01 08:55:44;;;;;;;;;;;16.20;59.40;;;;;;5093310;28;20314;-65
2022/01/01 08:58:09;;;;;;;;;;;16.30;59.40;;;;;;5093120;28;19916;-66
2022/01/01 09:00:35;;;;;;;;;;;16.30;59.40;;;;;;5093297;28;19912;-65
2022/01/01 09:03:01;;;;;;;;;;;16.40;59.20;;;;;;5093345;28;19916;-65
2022/01/01 09:05:26;;;;;;;;;;;16.40;59.10;;;;;;5101228;28;19975;-65
2022/01/01 09:07:52;;;;;;;;;;;16.50;59.00;;;;;;5096355;28;19955;-65
2022/01/01 09:10:19;;;;;;;;;;;16.50;58.90;;;;;;5093234;28;19909;-65
2022/01/01 09:12:44;;;;;;;;;;;16.60;58.90;;;;;;5093311;28;19997;-65
2022/01/01 09:15:10;;;;;;;;;;;16.70;58.80;;;;;;5093265;28;20057;-65
2022/01/01 09:17:36;;;;;;;;;;;16.70;58.80;;;;;;5092809;28;19920;-65
2022/01/01 09:20:02;;;;;;;;;;;16.80;58.50;;;;;;5093147;28;19920;-65
2022/01/01 09:22:28;;;;;;;;;;;16.80;58.40;;;;;;5093108;28;19915;-65
2022/01/01 09:24:54;;;;;;;;;;;16.80;58.50;;;;;;5093004;28;20288;-65
2022/01/01 09:27:20;;;;;;;;;;;16.90;58.40;;;;;;5092779;28;20398;-65
2022/01/01 09:29:45;;;;;;;;;;;16.90;58.10;;;;;;5092889;28;19940;-65
2022/01/01 09:32:11;;;;;;;;;;;16.90;58.00;;;;;;5092946;28;19955;-65
2022/01/01 09:34:37;;;;;;;;;;;16.90;57.70;;;;;;5092962;28;19908;-65
2022/01/01 09:37:03;;;;;;;;;;;16.90;57.30;;;;;;5119542;27;19911;-65
2022/01/01 09:39:29;;;;;;;;;;;16.80;57.30;;;;;;5115803;28;19954;-66
2022/01/01 09:41:55;;;;;;;;;;;16.80;57.20;;;;;;5117123;28;19908;-65
2022/01/01 09:44:21;;;;;;;;;;;16.70;57.20;;;;;;5117058;28;19912;-65
2022/01/01 09:46:48;;;;;;;;;;;16.70;57.30;;;;;;5109943;28;19912;-66
2022/01/01 09:49:14;;;;;;;;;;;16.60;57.30;;;;;;5096646;28;19912;-65
2022/01/01 09:51:40;;;;;;;;;;;16.60;57.30;;;;;;5096538;28;19908;-65
2022/01/01 09:54:06;;;;;;;;;;;16.50;57.50;;;;;;5096352;28;20384;-65
2022/01/01 09:56:32;;;;;;;;;;;16.50;57.60;;;;;;5096425;28;19912;-65
2022/01/01 09:58:57;;;;;;;;;;;16.50;57.60;;;;;;5096092;28;19916;-65
2022/01/01 10:01:23;;;;;;;;;;;16.50;57.70;;;;;;5095035;28;19908;-65
2022/01/01 10:03:50;;;;;;;;;;;16.40;57.60;;;;;;5102442;28;20289;-65
2022/01/01 10:06:16;;;;;;;;;;;16.40;57.70;;;;;;5116548;27;19908;-65
2022/01/01 10:08:46;;;;;;;;;;;16.40;57.80;;;;;;5101148;28;19920;-65
2022/01/01 10:11:15;;;;;;;;;;;16.30;57.80;;;;;;5096163;28;19995;-65
2022/01/01 10:13:41;;;;;;;;;;;16.30;57.90;;;;;;5096218;28;20015;-65
2022/01/01 10:16:08;;;;;;;;;;;16.30;57.90;;;;;;5095854;28;19920;-65
2022/01/01 10:18:38;;;;;;;;;;;16.30;58.00;;;;;;5095899;28;19961;-65
2022/01/01 10:21:08;;;;;;;;;;;16.40;58.10;;;;;;5095812;28;19908;-65
2022/01/01 10:23:35;;;;;;;;;;;16.40;58.10;;;;;;5095589;28;19920;-65
2022/01/01 10:28:54;;;;;;;;;;;16.40;57.90;;;;;;5095822;28;19954;-65
2022/01/01 10:31:19;;;;;;;;;;;16.50;57.90;;;;;;5094405;28;19908;-65
2022/01/01 10:33:46;;;;;;;;;;;16.40;57.80;;;;;;5095613;28;19996;-65
2022/01/01 10:36:13;;;;;;;;;;;16.40;57.80;;;;;;5095477;28;19916;-66
2022/01/01 10:38:38;;;;;;;;;;;16.40;57.80;;;;;;5095587;28;19912;-65
2022/01/01 10:41:09;;;;;;;;;;;16.30;57.70;;;;;;5095586;28;20277;-66
2022/01/01 10:43:41;;;;;;;;;;;16.40;57.80;;;;;;5095504;28;19908;-65
2022/01/01 10:46:18;;;;;;;;;;;16.30;57.80;;;;;;5095409;28;19912;-65
2022/01/01 10:48:57;;;;;;;;;;;16.30;57.80;;;;;;5094595;28;19958;-65
2022/01/01 10:51:23;;;;;;;;;;;16.30;57.90;;;;;;5095338;28;19916;-65
2022/01/01 10:54:15;;;;;;;;;;;16.30;58.00;;;;;;5095154;28;20319;-65
2022/01/01 10:56:41;;;;;;;;;;;16.30;58.10;;;;;;5093009;28;19912;-66
2022/01/01 10:59:09;;;;;;;;;;;16.30;58.20;;;;;;5095070;28;19968;-65
2022/01/01 11:01:40;;;;;;;;;;;16.30;58.20;;;;;;5110632;28;20338;-66
2022/01/01 11:04:07;;;;;;;;;;;16.30;58.30;;;;;;5095170;28;19957;-66
2022/01/01 11:06:32;;;;;;;;;;;16.40;58.30;;;;;;5095015;28;19908;-66
2022/01/01 11:08:58;;;;;;;;;;;16.50;58.30;;;;;;5095020;28;19927;-67
2022/01/01 11:11:25;;;;;;;;;;;16.50;58.30;;;;;;5095026;28;19916;-67
2022/01/01 11:13:51;;;;;;;;;;;16.60;58.20;;;;;;5102863;28;19918;-65
2022/01/01 11:16:19;;;;;;;;;;;16.60;58.00;;;;;;5094722;28;19916;-64
2022/01/01 11:18:45;;;;;;;;;;;16.70;57.90;;;;;;5094779;28;19912;-65
2022/01/01 11:21:11;;;;;;;;;;;16.80;57.80;;;;;;5094741;28;20393;-64
2022/01/01 11:23:37;;;;;;;;;;;16.80;57.70;;;;;;5094575;28;19908;-65
2022/01/01 11:26:03;;;;;;;;;;;16.80;57.60;;;;;;5094570;28;19914;-65
2022/01/01 11:28:28;;;;;;;;;;;16.90;57.60;;;;;;5094543;28;19908;-65
2022/01/01 11:30:54;;;;;;;;;;;17.00;57.70;;;;;;5094613;28;19951;-65
2022/01/01 11:33:26;;;;;;;;;;;17.00;57.80;;;;;;5094477;28;19908;-66
2022/01/01 11:35:56;;;;;;;;;;;17.20;57.90;;;;;;5094305;28;19918;-66
2022/01/01 11:38:22;;;;;;;;;;;17.30;57.80;;;;;;5094348;28;19975;-65
2022/01/01 11:41:06;;;;;;;;;;;17.40;57.50;;;;;;5093083;28;19908;-65
2022/01/01 11:43:35;;;;;;;;;;;17.40;57.20;;;;;;5094273;28;19908;-66
2022/01/01 11:46:05;;;;;;;;;;;17.60;57.00;;;;;;5094189;28;19954;-65
2022/01/01 11:48:37;;;;;;;;;;;17.60;56.80;;;;;;5097382;28;20369;-66
2022/01/01 11:51:22;;;;;;;;;;;17.70;56.90;;;;;;5114522;28;19907;-66
2022/01/01 11:54:06;;;;;;;;;;;17.80;56.90;;;;;;5114512;28;19914;-65
2022/01/01 11:57:05;;;;;;;;;;;17.90;56.60;;;;;;5114403;28;19916;-66
2022/01/01 11:59:37;;;;;;;;;;;18.00;56.60;;;;;;5050949;28;20000;-65
2022/01/01 12:02:21;;;;;;;;;;;18.10;56.40;;;;;;5039357;28;19959;-66
2022/01/01 12:04:48;;;;;;;;;;;18.20;56.30;;;;;;5031717;28;19909;-65
2022/01/01 12:07:28;;;;;;;;;;;18.30;56.30;;;;;;5031624;28;19959;-66
2022/01/01 12:10:03;;;;;;;;;;;18.30;56.00;;;;;;5031685;28;20008;-66
2022/01/01 12:12:37;;;;;;;;;;;18.40;56.00;;;;;;5031513;28;19996;-66
2022/01/01 12:15:04;;;;;;;;;;;18.50;56.00;;;;;;5031460;28;19909;-66
2022/01/01 12:18:00;;;;;;;;;;;18.50;55.80;;;;;;5031929;28;19921;-66
2022/01/01 12:20:36;;;;;;;;;;;18.60;56.00;;;;;;4972503;28;19921;-66
2022/01/01 12:23:28;;;;;;;;;;;18.70;55.70;;;;;;4970454;28;19964;-65
2022/01/01 12:25:54;;;;;;;;;;;18.70;55.60;;;;;;4969276;28;19920;-65
2022/01/01 12:28:34;;;;;;;;;;;18.80;55.40;;;;;;4982120;28;19977;-65
2022/01/01 12:31:10;;;;;;;;;;;18.80;55.80;;;;;;4991544;28;19916;-66
2022/01/01 12:33:39;;;;;;;;;;;18.80;55.10;;;;;;4990952;28;19996;-66
2022/01/01 12:36:05;;;;;;;;;;;18.80;54.90;;;;;;5026977;28;19909;-66
2022/01/01 12:38:33;;;;;;;;;;;18.80;54.90;;;;;;5029530;28;19917;-66
2022/01/01 12:41:00;;;;;;;;;;;18.80;54.60;;;;;;5013589;28;19913;-66
2022/01/01 12:43:26;;;;;;;;;;;18.80;54.70;;;;;;5028284;28;19909;-66
2022/01/01 12:45:53;;;;;;;;;;;18.70;54.70;;;;;;5028587;28;19913;-66
2022/01/01 12:48:25;;;;;;;;;;;18.70;54.60;;;;;;5029051;28;19909;-65
2022/01/01 12:50:58;;;;;;;;;;;18.70;54.30;;;;;;5010541;28;20390;-66
2022/01/01 12:53:24;;;;;;;;;;;18.60;54.10;;;;;;5028690;28;19909;-66
2022/01/01 12:56:22;;;;;;;;;;;18.50;53.90;;;;;;5036755;28;20003;-66
2022/01/01 12:58:52;;;;;;;;;;;18.50;54.00;;;;;;5048474;28;20032;-67
2022/01/01 13:01:18;;;;;;;;;;;18.30;53.90;;;;;;5029981;28;20098;-66
2022/01/01 13:03:45;;;;;;;;;;;18.30;54.10;;;;;;5040540;28;19912;-66
2022/01/01 13:06:18;;;;;;;;;;;18.10;53.90;;;;;;5048581;28;20593;-66
2022/01/01 13:08:44;;;;;;;;;;;18.10;54.10;;;;;;5049631;28;19914;-65
2022/01/01 13:11:10;;;;;;;;;;;17.90;54.00;;;;;;5049782;28;20388;-65
2022/01/01 13:13:36;;;;;;;;;;;17.90;54.00;;;;;;5053346;28;19909;-66
2022/01/01 13:16:02;;;;;;;;;;;17.70;54.10;;;;;;5053499;28;19952;-65
2022/01/01 13:18:28;;;;;;;;;;;17.60;54.10;;;;;;5053854;28;19912;-65
2022/01/01 13:20:54;;;;;;;;;;;17.50;54.20;;;;;;5053681;28;19996;-65
2022/01/01 13:23:21;;;;;;;;;;;17.40;54.30;;;;;;5053738;28;20370;-65
2022/01/01 13:25:47;;;;;;;;;;;17.30;54.30;;;;;;5053716;28;19996;-66
2022/01/01 13:28:13;;;;;;;;;;;17.20;54.40;;;;;;5052857;28;20007;-66
2022/01/01 13:30:39;;;;;;;;;;;17.10;54.50;;;;;;5053703;28;19913;-66
2022/01/01 13:33:04;;;;;;;;;;;17.00;54.60;;;;;;5053633;28;19939;-66
2022/01/01 13:35:31;;;;;;;;;;;16.90;54.70;;;;;;5094175;28;20007;-65
2022/01/01 13:37:56;;;;;;;;;;;16.80;54.70;;;;;;5094585;28;19912;-65
2022/01/01 13:40:22;;;;;;;;;;;16.70;54.80;;;;;;5095732;28;19930;-66
2022/01/01 13:42:48;;;;;;;;;;;16.70;55.00;;;;;;5111467;28;19919;-65
2022/01/01 13:45:14;;;;;;;;;;;16.60;55.00;;;;;;5095815;28;19908;-65
2022/01/01 13:47:40;;;;;;;;;;;16.50;55.10;;;;;;5095854;28;19908;-65
2022/01/01 13:50:17;;;;;;;;;;;16.40;55.10;;;;;;5095657;28;19908;-65
2022/01/01 13:52:54;;;;;;;;;;;16.40;55.30;;;;;;5095605;28;20365;-65
2022/01/01 13:55:27;;;;;;;;;;;16.30;55.30;;;;;;5095638;28;19912;-65
2022/01/01 13:57:55;;;;;;;;;;;16.20;55.40;;;;;;5099114;28;19912;-65
2022/01/01 14:00:20;;;;;;;;;;;16.20;55.60;;;;;;5115575;28;20392;-65
2022/01/01 14:02:46;;;;;;;;;;;16.10;55.60;;;;;;5115888;28;19911;-66
2022/01/01 14:05:15;;;;;;;;;;;16.00;55.70;;;;;;5097799;27;20380;-65
2022/01/01 14:07:41;;;;;;;;;;;16.00;55.80;;;;;;5115854;28;19914;-65
2022/01/01 14:10:07;;;;;;;;;;;15.90;55.80;;;;;;5115728;28;19912;-66
2022/01/01 14:12:36;;;;;;;;;;;15.80;55.90;;;;;;5115688;28;19922;-65
2022/01/01 14:15:02;;;;;;;;;;;15.80;56.10;;;;;;5115601;28;19908;-65
2022/01/01 14:17:28;;;;;;;;;;;15.80;56.20;;;;;;5115338;28;20399;-66
2022/01/01 14:19:53;;;;;;;;;;;15.70;56.30;;;;;;5099036;28;19912;-65